Airfield :







YOU CAN JOIN US ON...

 
LOGIN :

Register | Disclaimer

   EN    FR    IT 

 









Legend :    VFR   Marginal VFR   IFR   Intensive IFR   Very Intensive IFR
Visi :
Ceiling :
>= 8 km
>= 3000ft
5 to 8 km
1000 to 3000 ft
1500m to 5 km
500 to 1000 ft
800 to 1500m
200 to 500 ft
< 800m
< 200 ft
Symbols :   Thunderstorms  Fog  Heavy snow  Heavy precipitations  Wind > 20 kt







- Airport Elevation : 160 ft
- IATA code : YYG


CYYG - Charlottetown

CURRENT METAR :
  • 251300Z 05003KT 15SM FEW023 17/10 A3040 RMK CF1 CF TR WND ESTD SLP296

EXPIRED METARs :
  • 251200Z /////KT 15SM FEW025 16/10 A3039 RMK CU1 SLP294
  • 251100Z 32003KT 15SM FEW030 13/11 A3038 RMK CF1 CF TR SLP292

TAF TAF CYYG
Valid from the 25 at 12:00 until the 26 at 00:00 UTC


251138Z 2512/2524 01005KT P6SM FEW030
FM251400 03007KT P6SM FEW040 RMK NXT FCST BY 251800Z
No reported NOTAMs for that airfield.



MET'MAP, your aeronautical weather chart ! - Copyright ORBIFLY December 2007 - Disclaimer

ORBIFLY MET'MAP TEAM :

Programming & Development : Alexandra Zaïnal
Concept & Development : Baudouin d'Aumeries
Co-Development & Prog : Marc-Olivier Méhu
Technical & hardware support : Manuel Goepfert

Contact : metmap@orbifly.com




SOURCES & CREDITS :

   NOAA